createdAt,value
2023-12-07T00:00:13.745Z,8.60
2023-12-07T00:03:00.774Z,7.35
2023-12-07T00:05:46.420Z,11.93
2023-12-07T00:08:32.506Z,19.92
2023-12-07T00:11:18.139Z,14.68
2023-12-07T00:14:03.653Z,12.65
2023-12-07T00:16:50.229Z,13.75
2023-12-07T00:19:35.985Z,13.48
2023-12-07T00:22:22.468Z,9.43
2023-12-07T00:25:08.710Z,10.65
2023-12-07T00:27:54.686Z,12.52
2023-12-07T00:30:40.518Z,13.88
2023-12-07T00:33:26.272Z,14.63
2023-12-07T00:36:14.246Z,11.13
2023-12-07T00:38:59.697Z,11.30
2023-12-07T00:41:45.705Z,12.45
2023-12-07T00:44:31.362Z,11.25
2023-12-07T00:47:17.634Z,11.77
2023-12-07T00:50:03.689Z,9.52
2023-12-07T00:52:49.619Z,9.60
2023-12-07T00:55:36.066Z,9.70
2023-12-07T00:58:21.900Z,13.85
2023-12-07T01:01:07.952Z,12.52
2023-12-07T01:03:53.876Z,12.70
2023-12-07T01:06:39.494Z,12.15
2023-12-07T01:09:26.705Z,10.60
2023-12-07T01:12:12.259Z,12.70
2023-12-07T01:14:58.321Z,8.93
2023-12-07T01:17:43.689Z,11.82
2023-12-07T01:20:29.188Z,12.32
2023-12-07T01:23:16.897Z,13.05
2023-12-07T01:26:03.693Z,10.65
2023-12-07T01:28:49.746Z,8.20
2023-12-07T01:31:35.417Z,9.52
2023-12-07T01:34:21.489Z,11.57
2023-12-07T01:37:08.831Z,9.48
2023-12-07T01:39:54.495Z,10.05
2023-12-07T01:42:40.675Z,8.05
2023-12-07T01:45:26.510Z,10.63
2023-12-07T01:48:12.617Z,13.65
2023-12-07T01:50:59.516Z,8.77
2023-12-07T01:53:45.551Z,11.25
2023-12-07T01:56:32.091Z,11.48
2023-12-07T01:59:17.801Z,10.43
2023-12-07T02:02:03.933Z,12.00
2023-12-07T02:04:50.357Z,10.48
2023-12-07T02:07:36.392Z,8.75
2023-12-07T02:10:22.066Z,9.25
2023-12-07T02:13:08.406Z,8.05
2023-12-07T02:15:57.213Z,10.00
2023-12-07T02:18:53.043Z,10.82
2023-12-07T02:21:48.899Z,8.68
2023-12-07T02:24:37.836Z,9.73
2023-12-07T02:27:49.141Z,8.45
2023-12-07T02:30:34.791Z,10.15
2023-12-07T02:33:20.472Z,9.93
2023-12-07T02:36:06.714Z,11.25
2023-12-07T02:38:54.452Z,10.82
2023-12-07T02:41:42.109Z,7.97
2023-12-07T02:44:27.869Z,10.82
2023-12-07T02:47:13.723Z,9.57
2023-12-07T02:49:59.309Z,10.65
2023-12-07T02:52:44.876Z,9.43
2023-12-07T02:55:30.958Z,10.63
2023-12-07T02:58:21.184Z,8.55
2023-12-07T03:01:07.751Z,8.82
2023-12-07T03:03:54.059Z,7.93
2023-12-07T03:06:39.778Z,8.98
2023-12-07T03:09:25.205Z,9.90
2023-12-07T03:12:11.220Z,9.48
2023-12-07T03:14:56.800Z,7.53
2023-12-07T03:17:42.707Z,10.00
2023-12-07T03:20:28.518Z,6.57
2023-12-07T03:23:14.826Z,9.68
2023-12-07T03:26:00.449Z,9.80
2023-12-07T03:28:46.010Z,9.07
2023-12-07T03:31:32.672Z,9.82
2023-12-07T03:34:18.701Z,11.30
2023-12-07T03:37:04.913Z,10.15
2023-12-07T03:39:50.549Z,10.05
2023-12-07T03:42:50.717Z,11.07
2023-12-07T03:45:41.880Z,10.88
2023-12-07T03:48:27.840Z,9.40
2023-12-07T03:51:17.925Z,11.65
2023-12-07T03:54:05.128Z,13.25
2023-12-07T03:56:51.298Z,11.48
2023-12-07T03:59:40.247Z,10.60
2023-12-07T04:02:26.200Z,13.13
2023-12-07T04:05:13.589Z,11.55
2023-12-07T04:07:59.570Z,9.52
2023-12-07T04:10:45.304Z,11.52
2023-12-07T04:13:31.516Z,12.38
2023-12-07T04:16:17.649Z,11.75
2023-12-07T04:19:04.188Z,13.13
2023-12-07T04:21:49.873Z,10.45
2023-12-07T04:24:35.290Z,10.95
2023-12-07T04:27:21.105Z,11.88
2023-12-07T04:30:07.459Z,12.43
2023-12-07T04:32:53.185Z,11.88
2023-12-07T04:35:39.159Z,12.20
2023-12-07T04:38:25.185Z,10.00
2023-12-07T04:41:11.303Z,10.63
2023-12-07T04:43:56.710Z,11.88
2023-12-07T04:46:43.363Z,11.90
2023-12-07T04:49:29.037Z,10.43
2023-12-07T04:52:14.885Z,10.25
2023-12-07T04:55:00.974Z,12.43
2023-12-07T04:57:47.304Z,23.35
2023-12-07T05:00:32.947Z,13.38
2023-12-07T05:03:18.536Z,15.93
2023-12-07T05:06:04.841Z,15.25
2023-12-07T05:08:50.449Z,14.27
2023-12-07T05:11:37.195Z,12.85
2023-12-07T05:14:22.989Z,10.40
2023-12-07T05:17:08.954Z,10.07
2023-12-07T05:19:55.149Z,12.63
2023-12-07T05:22:41.158Z,9.43
2023-12-07T05:25:27.533Z,11.23
2023-12-07T05:28:13.578Z,9.60
2023-12-07T05:30:59.739Z,11.30
2023-12-07T05:33:47.089Z,13.25
2023-12-07T05:36:33.497Z,11.02
2023-12-07T05:39:19.072Z,6.90
2023-12-07T05:42:05.619Z,9.60
2023-12-07T05:44:51.641Z,6.95
2023-12-07T05:47:37.790Z,10.63
2023-12-07T05:50:23.729Z,8.88
2023-12-07T05:53:10.335Z,11.45
2023-12-07T05:55:56.649Z,11.70
2023-12-07T05:58:42.548Z,9.82
2023-12-07T06:01:29.412Z,10.43
2023-12-07T06:04:17.623Z,10.88
2023-12-07T06:07:03.828Z,8.60
2023-12-07T06:09:50.467Z,9.77
2023-12-07T06:12:36.324Z,10.15
2023-12-07T06:15:22.074Z,11.57
2023-12-07T06:18:09.409Z,10.77
2023-12-07T06:20:55.246Z,12.32
2023-12-07T06:23:41.305Z,11.90
2023-12-07T06:26:27.510Z,11.27
2023-12-07T06:29:13.810Z,10.20
2023-12-07T06:31:59.737Z,10.70
2023-12-07T06:34:45.586Z,11.45
2023-12-07T06:37:31.480Z,13.57
2023-12-07T06:40:17.689Z,12.77
2023-12-07T06:43:03.248Z,13.10
2023-12-07T06:45:49.184Z,11.80
2023-12-07T06:48:35.453Z,17.63
2023-12-07T06:51:21.430Z,13.88
2023-12-07T06:54:07.171Z,13.77
2023-12-07T06:56:53.360Z,12.02
2023-12-07T06:59:39.055Z,13.07
2023-12-07T07:02:24.920Z,10.45
2023-12-07T07:05:12.750Z,12.77
2023-12-07T07:07:58.868Z,10.73
2023-12-07T07:10:47.818Z,11.13
2023-12-07T07:16:20.342Z,10.65
2023-12-07T07:19:05.989Z,11.60
2023-12-07T07:21:52.085Z,11.48
2023-12-07T07:24:37.529Z,15.10
2023-12-07T07:27:23.861Z,11.93
2023-12-07T07:30:10.511Z,11.38
2023-12-07T07:32:56.125Z,12.82
2023-12-07T07:35:42.816Z,12.05
2023-12-07T07:38:29.221Z,13.60
2023-12-07T07:41:15.356Z,10.05
2023-12-07T07:44:03.662Z,11.63
2023-12-07T07:46:50.935Z,11.77
2023-12-07T07:49:36.841Z,11.25
2023-12-07T07:52:22.710Z,8.38
2023-12-07T07:55:09.430Z,13.57
2023-12-07T07:57:55.230Z,11.48
2023-12-07T08:00:41.253Z,9.75
2023-12-07T08:03:26.955Z,9.63
2023-12-07T08:06:13.722Z,11.90
2023-12-07T08:09:00.798Z,10.57
2023-12-07T08:11:47.169Z,12.75
2023-12-07T08:14:32.855Z,11.27
2023-12-07T08:17:20.998Z,9.98
2023-12-07T08:20:17.140Z,10.05
2023-12-07T08:23:02.759Z,9.82
2023-12-07T08:25:49.299Z,8.68
2023-12-07T08:28:36.116Z,8.25
2023-12-07T08:31:21.779Z,8.98
2023-12-07T08:34:07.933Z,8.30
2023-12-07T08:36:54.252Z,9.63
2023-12-07T08:39:40.117Z,8.75
2023-12-07T08:42:27.909Z,7.97
2023-12-07T08:45:14.967Z,8.50
2023-12-07T08:48:00.665Z,8.93
2023-12-07T08:50:46.949Z,9.43
2023-12-07T08:53:33.281Z,9.45
2023-12-07T08:56:20.293Z,7.90
2023-12-07T08:59:06.045Z,10.45
2023-12-07T09:01:52.573Z,9.38
2023-12-07T09:04:38.452Z,11.50
2023-12-07T09:07:24.522Z,10.55
2023-12-07T09:10:11.873Z,8.95
2023-12-07T09:12:58.035Z,10.00
2023-12-07T09:15:44.168Z,10.60
2023-12-07T09:18:30.350Z,10.30
2023-12-07T09:21:17.957Z,10.40
2023-12-07T09:24:04.242Z,10.13
2023-12-07T09:26:50.179Z,11.30
2023-12-07T09:29:36.247Z,9.10
2023-12-07T09:32:29.824Z,9.13
2023-12-07T09:35:22.718Z,11.02
2023-12-07T09:38:08.772Z,12.77
2023-12-07T09:40:55.677Z,11.38
2023-12-07T09:43:41.580Z,11.93
2023-12-07T09:46:27.624Z,12.65
2023-12-07T09:49:13.634Z,11.32
2023-12-07T09:52:02.453Z,14.35
2023-12-07T09:54:48.498Z,11.75
2023-12-07T09:57:35.569Z,13.85
2023-12-07T10:00:22.133Z,12.38
2023-12-07T10:03:09.629Z,12.10
2023-12-07T10:06:01.630Z,14.50
2023-12-07T10:08:48.792Z,14.07
2023-12-07T10:11:34.253Z,17.27
2023-12-07T10:14:19.781Z,14.60
2023-12-07T10:17:06.939Z,15.82
2023-12-07T10:20:13.577Z,13.40
2023-12-07T10:23:10.189Z,12.75
2023-12-07T10:25:56.488Z,13.68
2023-12-07T10:28:43.590Z,12.43
2023-12-07T10:31:32.613Z,16.95
2023-12-07T10:37:07.960Z,14.85
2023-12-07T10:39:54.232Z,15.02
2023-12-07T10:42:49.032Z,17.48
2023-12-07T10:45:36.388Z,14.82
2023-12-07T10:48:22.859Z,17.67
2023-12-07T10:51:10.827Z,16.05
2023-12-07T10:53:59.779Z,14.40
2023-12-07T10:56:47.528Z,16.50
2023-12-07T10:59:36.601Z,16.35
2023-12-07T11:02:23.430Z,14.45
2023-12-07T11:05:10.856Z,14.57
2023-12-07T11:08:10.759Z,13.50
2023-12-07T11:11:31.889Z,11.23
2023-12-07T11:14:18.584Z,13.80
2023-12-07T11:17:05.417Z,12.05
2023-12-07T11:19:51.270Z,13.88
2023-12-07T11:22:36.899Z,14.48
2023-12-07T11:25:22.685Z,12.95
2023-12-07T11:28:10.653Z,12.15
2023-12-07T11:30:56.508Z,12.40
2023-12-07T11:33:43.385Z,13.43
2023-12-07T11:36:30.012Z,15.40
2023-12-07T11:39:20.849Z,15.73
2023-12-07T11:42:22.702Z,14.68
2023-12-07T11:45:09.494Z,14.45
2023-12-07T11:48:18.339Z,16.13
2023-12-07T11:51:10.018Z,15.52
2023-12-07T11:53:56.383Z,12.65
2023-12-07T11:56:43.785Z,14.55
2023-12-07T11:59:34.033Z,12.90
2023-12-07T12:02:21.151Z,14.10
2023-12-07T12:05:07.584Z,13.20
2023-12-07T12:07:53.935Z,12.70
2023-12-07T12:10:41.750Z,15.68
2023-12-07T12:13:34.514Z,13.52
2023-12-07T12:16:20.501Z,16.45
2023-12-07T12:19:08.641Z,13.10
2023-12-07T12:21:56.462Z,14.80
2023-12-07T12:24:42.785Z,14.18
2023-12-07T12:27:28.547Z,13.55
2023-12-07T12:30:15.289Z,14.48
2023-12-07T12:33:01.688Z,15.50
2023-12-07T12:35:47.868Z,13.00
2023-12-07T12:38:41.333Z,13.90
2023-12-07T12:41:32.006Z,15.57
2023-12-07T12:44:24.793Z,15.77
2023-12-07T12:47:17.384Z,14.38
2023-12-07T12:50:06.143Z,16.92
2023-12-07T12:52:52.442Z,16.45
2023-12-07T12:55:42.705Z,16.50
2023-12-07T12:58:28.767Z,18.35
2023-12-07T13:01:18.868Z,17.45
2023-12-07T13:04:05.229Z,14.93
2023-12-07T13:06:51.444Z,16.98
2023-12-07T13:09:39.088Z,16.58
2023-12-07T13:12:29.262Z,17.73
2023-12-07T13:15:18.025Z,18.42
2023-12-07T13:18:07.240Z,17.38
2023-12-07T13:20:56.218Z,16.30
2023-12-07T13:23:42.855Z,17.17
2023-12-07T13:26:28.772Z,18.95
2023-12-07T13:29:21.793Z,17.38
2023-12-07T13:32:15.544Z,20.05
2023-12-07T13:35:02.649Z,17.25
2023-12-07T13:37:49.381Z,21.05
2023-12-07T13:40:38.326Z,16.55
2023-12-07T13:43:27.205Z,18.33
2023-12-07T13:48:59.977Z,20.05
2023-12-07T13:51:47.689Z,18.88
2023-12-07T13:54:46.577Z,18.60
2023-12-07T13:57:40.509Z,17.60
2023-12-07T14:00:26.143Z,20.02
2023-12-07T14:03:11.612Z,19.08
2023-12-07T14:05:57.207Z,17.08
2023-12-07T14:08:43.737Z,24.88
2023-12-07T14:11:29.527Z,22.17
2023-12-07T14:14:15.451Z,16.65
2023-12-07T14:17:10.580Z,21.90
2023-12-07T14:20:10.116Z,15.90
2023-12-07T14:23:06.541Z,21.75
2023-12-07T14:25:52.949Z,29.52
2023-12-07T14:28:38.589Z,23.10
2023-12-07T14:31:24.568Z,18.17
2023-12-07T14:34:12.819Z,14.88
2023-12-07T14:37:00.628Z,19.52
2023-12-07T14:39:45.919Z,22.35
2023-12-07T14:42:32.291Z,15.23
2023-12-07T14:45:21.734Z,16.05
2023-12-07T14:48:07.813Z,18.25
2023-12-07T14:50:53.722Z,20.52
2023-12-07T14:53:40.125Z,16.52
2023-12-07T14:56:26.269Z,16.25
2023-12-07T14:59:12.749Z,16.90
2023-12-07T15:02:00.398Z,17.42
2023-12-07T15:04:46.676Z,15.48
2023-12-07T15:07:32.971Z,15.63
2023-12-07T15:10:19.885Z,15.32
2023-12-07T15:13:07.136Z,14.48
2023-12-07T15:15:53.297Z,18.05
2023-12-07T15:18:44.344Z,15.43
2023-12-07T15:21:31.224Z,12.85
2023-12-07T15:24:23.441Z,19.00
2023-12-07T15:27:15.822Z,13.75
2023-12-07T15:30:01.942Z,14.10
2023-12-07T15:32:48.093Z,14.73
2023-12-07T15:35:34.347Z,14.65
2023-12-07T15:38:20.125Z,12.70
2023-12-07T15:41:06.500Z,15.23
2023-12-07T15:43:52.234Z,13.57
2023-12-07T15:46:37.645Z,16.63
2023-12-07T15:49:23.622Z,14.57
2023-12-07T15:52:10.166Z,14.75
2023-12-07T15:54:56.366Z,16.45
2023-12-07T15:57:42.945Z,13.43
2023-12-07T16:00:28.752Z,13.77
2023-12-07T16:03:14.971Z,13.07
2023-12-07T16:06:02.830Z,17.90
2023-12-07T16:08:48.843Z,15.18
2023-12-07T16:11:34.794Z,13.82
2023-12-07T16:14:26.650Z,15.60
2023-12-07T16:17:16.916Z,16.95
2023-12-07T16:20:02.916Z,16.15
2023-12-07T16:22:48.894Z,17.15
2023-12-07T16:25:34.420Z,16.33
2023-12-07T16:28:19.896Z,16.02
2023-12-07T16:31:07.498Z,15.48
2023-12-07T16:33:57.618Z,15.02
2023-12-07T16:36:44.542Z,16.42
2023-12-07T16:39:33.576Z,13.73
2023-12-07T16:42:19.787Z,16.30
2023-12-07T16:45:07.386Z,17.30
2023-12-07T16:47:55.086Z,17.08
2023-12-07T16:50:41.183Z,17.63
2023-12-07T16:53:27.911Z,17.02
2023-12-07T16:56:13.988Z,15.73
2023-12-07T16:59:01.138Z,16.58
2023-12-07T17:01:46.933Z,15.52
2023-12-07T17:04:33.049Z,17.27
2023-12-07T17:07:19.261Z,15.95
2023-12-07T17:10:07.963Z,16.75
2023-12-07T17:12:53.682Z,18.63
2023-12-07T17:15:40.300Z,17.00
2023-12-07T17:18:26.828Z,19.48
2023-12-07T17:21:14.001Z,17.20
2023-12-07T17:24:00.056Z,17.52
2023-12-07T17:26:52.528Z,16.70
2023-12-07T17:29:41.350Z,16.70
2023-12-07T17:32:28.196Z,16.40
2023-12-07T17:35:14.383Z,16.65
2023-12-07T17:38:00.532Z,18.95
2023-12-07T17:40:46.498Z,16.65
2023-12-07T17:43:31.889Z,18.05
2023-12-07T17:46:18.401Z,21.02
2023-12-07T17:49:04.825Z,24.48
2023-12-07T17:51:51.152Z,23.67
2023-12-07T17:54:36.906Z,24.08
2023-12-07T17:57:24.017Z,23.75
2023-12-07T18:00:11.140Z,23.70
2023-12-07T18:02:57.169Z,20.98
2023-12-07T18:05:43.209Z,20.75
2023-12-07T18:08:29.692Z,23.95
2023-12-07T18:11:23.363Z,19.33
2023-12-07T18:14:09.832Z,20.15
2023-12-07T18:16:55.645Z,24.40
2023-12-07T18:19:41.312Z,24.40
2023-12-07T18:22:27.427Z,22.15
2023-12-07T18:25:13.181Z,22.67
2023-12-07T18:27:58.678Z,22.88
2023-12-07T18:30:44.997Z,23.58
2023-12-07T18:33:31.318Z,22.73
2023-12-07T18:36:19.914Z,28.27
2023-12-07T18:39:05.596Z,28.02
2023-12-07T18:41:51.724Z,23.27
2023-12-07T18:44:38.141Z,23.65
2023-12-07T18:47:24.280Z,22.75
2023-12-07T18:50:10.596Z,22.98
2023-12-07T18:52:56.386Z,22.85
2023-12-07T18:55:42.619Z,21.42
2023-12-07T18:58:28.477Z,21.55
2023-12-07T19:01:13.877Z,22.65
2023-12-07T19:03:59.811Z,21.20
2023-12-07T19:06:46.020Z,24.88
2023-12-07T19:09:31.545Z,22.70
2023-12-07T19:12:17.138Z,23.50
2023-12-07T19:15:03.589Z,20.88
2023-12-07T19:17:50.331Z,20.42
2023-12-07T19:20:36.306Z,20.90
2023-12-07T19:23:23.195Z,22.92
2023-12-07T19:26:12.238Z,19.88
2023-12-07T19:29:00.491Z,21.38
2023-12-07T19:31:47.030Z,21.23
2023-12-07T19:34:32.708Z,19.27
2023-12-07T19:37:19.176Z,20.73
2023-12-07T19:40:06.173Z,18.55
2023-12-07T19:42:52.945Z,20.48
2023-12-07T19:45:39.284Z,22.08
2023-12-07T19:48:25.769Z,19.20
2023-12-07T19:51:12.040Z,20.67
2023-12-07T19:53:59.597Z,21.85
2023-12-07T19:56:45.698Z,21.05
2023-12-07T19:59:31.566Z,19.35
2023-12-07T20:02:20.430Z,20.20
2023-12-07T20:05:07.404Z,19.15
2023-12-07T20:07:53.510Z,20.20
2023-12-07T20:10:40.797Z,18.00
2023-12-07T20:13:26.710Z,20.25
2023-12-07T20:16:19.653Z,17.88
2023-12-07T20:19:05.346Z,16.70
2023-12-07T20:21:52.175Z,18.73
2023-12-07T20:24:41.153Z,18.30
2023-12-07T20:27:28.553Z,18.73
2023-12-07T20:30:15.377Z,20.15
2023-12-07T20:33:01.305Z,17.10
2023-12-07T20:35:47.809Z,17.63
2023-12-07T20:38:33.715Z,18.00
2023-12-07T20:41:20.499Z,17.20
2023-12-07T20:44:07.969Z,18.80
2023-12-07T20:46:54.376Z,17.55
2023-12-07T20:49:40.822Z,20.73
2023-12-07T20:52:27.839Z,18.15
2023-12-07T20:55:14.281Z,16.95
2023-12-07T20:58:01.126Z,17.52
2023-12-07T21:00:46.968Z,19.45
2023-12-07T21:03:34.961Z,16.90
2023-12-07T21:06:26.291Z,19.05
2023-12-07T21:09:13.474Z,18.08
2023-12-07T21:11:59.703Z,16.02
2023-12-07T21:14:45.509Z,17.38
2023-12-07T21:17:32.000Z,19.00
2023-12-07T21:20:18.101Z,18.35
2023-12-07T21:23:04.240Z,20.73
2023-12-07T21:25:50.221Z,17.30
2023-12-07T21:28:36.066Z,17.42
2023-12-07T21:31:23.389Z,17.55
2023-12-07T21:34:09.646Z,17.45
2023-12-07T21:36:55.683Z,19.17
2023-12-07T21:39:43.654Z,20.15
2023-12-07T21:42:29.880Z,17.90
2023-12-07T21:45:15.575Z,18.58
2023-12-07T21:48:02.563Z,18.83
2023-12-07T21:50:48.711Z,20.90
2023-12-07T21:53:34.503Z,20.17
2023-12-07T21:56:21.460Z,16.98
2023-12-07T21:59:07.464Z,19.42
2023-12-07T22:01:53.304Z,17.25
2023-12-07T22:04:39.504Z,20.42
2023-12-07T22:07:25.295Z,18.30
2023-12-07T22:10:18.662Z,18.40
2023-12-07T22:13:13.101Z,20.13
2023-12-07T22:15:58.436Z,17.60
2023-12-07T22:18:45.277Z,17.75
2023-12-07T22:21:31.047Z,19.38
2023-12-07T22:24:17.359Z,18.15
2023-12-07T22:27:03.435Z,19.42
2023-12-07T22:29:49.112Z,23.60
2023-12-07T22:32:35.124Z,19.35
2023-12-07T22:35:22.124Z,18.90
2023-12-07T22:38:08.058Z,18.77
2023-12-07T22:40:54.067Z,18.20
2023-12-07T22:43:40.651Z,19.33
2023-12-07T22:46:27.588Z,21.48
2023-12-07T22:49:14.778Z,18.85
2023-12-07T22:52:00.986Z,17.10
2023-12-07T22:54:46.428Z,18.95
2023-12-07T22:57:31.938Z,18.02
2023-12-07T23:00:20.841Z,20.38
2023-12-07T23:03:07.314Z,19.30
2023-12-07T23:05:53.637Z,21.75
2023-12-07T23:08:39.780Z,20.65
2023-12-07T23:11:25.665Z,17.55
2023-12-07T23:14:11.703Z,18.98
2023-12-07T23:16:57.713Z,19.45
2023-12-07T23:19:44.187Z,19.27
2023-12-07T23:22:30.106Z,21.60
2023-12-07T23:25:16.960Z,20.63
2023-12-07T23:28:04.283Z,18.92
2023-12-07T23:30:50.013Z,19.67
2023-12-07T23:33:35.738Z,18.67
2023-12-07T23:36:22.036Z,24.33
2023-12-07T23:39:07.818Z,19.65
2023-12-07T23:41:53.629Z,23.63
2023-12-07T23:44:39.196Z,23.42
2023-12-07T23:47:25.425Z,23.63
2023-12-07T23:50:11.378Z,25.98
2023-12-07T23:52:57.473Z,23.27
2023-12-07T23:55:43.086Z,23.75
2023-12-07T23:58:44.161Z,23.58
